sensor_id;sensor_type;location;lat;lon;timestamp;P1;durP1;ratioP1;P2;durP2;ratioP2
75689;SDS011;64303;53.118;9.044;2022-10-16T00:04:03;6.35;;;5.18;;
75689;SDS011;64303;53.118;9.044;2022-10-16T00:06:30;6.78;;;4.40;;
75689;SDS011;64303;53.118;9.044;2022-10-16T00:08:57;4.68;;;3.95;;
75689;SDS011;64303;53.118;9.044;2022-10-16T00:11:24;4.63;;;3.78;;
75689;SDS011;64303;53.118;9.044;2022-10-16T00:16:19;5.00;;;3.10;;
75689;SDS011;64303;53.118;9.044;2022-10-16T00:18:46;5.72;;;3.83;;
75689;SDS011;64303;53.118;9.044;2022-10-16T00:21:14;5.82;;;4.53;;
75689;SDS011;64303;53.118;9.044;2022-10-16T00:23:42;6.35;;;4.57;;
75689;SDS011;64303;53.118;9.044;2022-10-16T00:26:09;6.03;;;3.90;;
75689;SDS011;64303;53.118;9.044;2022-10-16T00:28:37;9.07;;;5.25;;
75689;SDS011;64303;53.118;9.044;2022-10-16T00:31:04;4.68;;;4.22;;
75689;SDS011;64303;53.118;9.044;2022-10-16T00:33:33;4.20;;;3.28;;
75689;SDS011;64303;53.118;9.044;2022-10-16T00:43:38;4.18;;;3.78;;
75689;SDS011;64303;53.118;9.044;2022-10-16T00:46:10;4.13;;;3.72;;
75689;SDS011;64303;53.118;9.044;2022-10-16T00:48:41;5.47;;;4.97;;
75689;SDS011;64303;53.118;9.044;2022-10-16T00:51:09;5.43;;;4.93;;
75689;SDS011;64303;53.118;9.044;2022-10-16T00:53:35;4.50;;;4.10;;
75689;SDS011;64303;53.118;9.044;2022-10-16T00:56:02;5.45;;;4.57;;
75689;SDS011;64303;53.118;9.044;2022-10-16T00:58:30;4.30;;;3.47;;
75689;SDS011;64303;53.118;9.044;2022-10-16T01:00:56;4.32;;;3.17;;
75689;SDS011;64303;53.118;9.044;2022-10-16T01:03:24;6.00;;;3.35;;
75689;SDS011;64303;53.118;9.044;2022-10-16T01:05:56;6.47;;;4.50;;
75689;SDS011;64303;53.118;9.044;2022-10-16T01:08:30;6.88;;;3.53;;
75689;SDS011;64303;53.118;9.044;2022-10-16T01:11:01;5.13;;;3.20;;
75689;SDS011;64303;53.118;9.044;2022-10-16T01:13:35;4.68;;;3.70;;
75689;SDS011;64303;53.118;9.044;2022-10-16T01:16:05;4.32;;;3.13;;
75689;SDS011;64303;53.118;9.044;2022-10-16T01:18:39;5.07;;;4.43;;
75689;SDS011;64303;53.118;9.044;2022-10-16T01:21:12;6.10;;;5.53;;
75689;SDS011;64303;53.118;9.044;2022-10-16T01:23:43;5.90;;;3.42;;
75689;SDS011;64303;53.118;9.044;2022-10-16T01:26:23;4.15;;;3.78;;
75689;SDS011;64303;53.118;9.044;2022-10-16T01:29:02;5.22;;;4.13;;
75689;SDS011;64303;53.118;9.044;2022-10-16T01:31:31;4.22;;;3.58;;
75689;SDS011;64303;53.118;9.044;2022-10-16T01:34:02;4.95;;;4.18;;
75689;SDS011;64303;53.118;9.044;2022-10-16T01:36:31;3.92;;;3.10;;
75689;SDS011;64303;53.118;9.044;2022-10-16T01:39:02;4.38;;;3.67;;
75689;SDS011;64303;53.118;9.044;2022-10-16T01:41:30;5.28;;;4.05;;
75689;SDS011;64303;53.118;9.044;2022-10-16T01:44:01;5.28;;;3.13;;
75689;SDS011;64303;53.118;9.044;2022-10-16T01:46:29;4.15;;;3.58;;
75689;SDS011;64303;53.118;9.044;2022-10-16T01:48:57;7.60;;;4.57;;
75689;SDS011;64303;53.118;9.044;2022-10-16T01:51:24;4.88;;;3.33;;
75689;SDS011;64303;53.118;9.044;2022-10-16T01:53:52;5.80;;;4.38;;
75689;SDS011;64303;53.118;9.044;2022-10-16T01:56:19;7.78;;;4.57;;
75689;SDS011;64303;53.118;9.044;2022-10-16T01:58:48;5.18;;;3.63;;
75689;SDS011;64303;53.118;9.044;2022-10-16T02:01:19;5.28;;;4.50;;
75689;SDS011;64303;53.118;9.044;2022-10-16T02:03:48;7.05;;;5.07;;
75689;SDS011;64303;53.118;9.044;2022-10-16T02:06:16;5.50;;;4.97;;
75689;SDS011;64303;53.118;9.044;2022-10-16T02:08:42;8.07;;;4.57;;
75689;SDS011;64303;53.118;9.044;2022-10-16T02:11:09;5.10;;;4.53;;
75689;SDS011;64303;53.118;9.044;2022-10-16T02:13:37;6.22;;;3.67;;
75689;SDS011;64303;53.118;9.044;2022-10-16T02:16:06;5.97;;;5.05;;
75689;SDS011;64303;53.118;9.044;2022-10-16T02:18:34;4.22;;;3.35;;
75689;SDS011;64303;53.118;9.044;2022-10-16T02:21:02;7.38;;;4.15;;
75689;SDS011;64303;53.118;9.044;2022-10-16T02:23:35;5.68;;;4.95;;
75689;SDS011;64303;53.118;9.044;2022-10-16T02:26:04;5.82;;;4.28;;
75689;SDS011;64303;53.118;9.044;2022-10-16T02:28:34;7.00;;;3.22;;
75689;SDS011;64303;53.118;9.044;2022-10-16T02:31:04;6.93;;;4.63;;
75689;SDS011;64303;53.118;9.044;2022-10-16T02:33:34;5.70;;;4.88;;
75689;SDS011;64303;53.118;9.044;2022-10-16T02:36:02;6.50;;;4.53;;
75689;SDS011;64303;53.118;9.044;2022-10-16T02:38:29;9.43;;;6.63;;
75689;SDS011;64303;53.118;9.044;2022-10-16T02:40:56;4.75;;;3.97;;
75689;SDS011;64303;53.118;9.044;2022-10-16T02:43:23;8.02;;;4.20;;
75689;SDS011;64303;53.118;9.044;2022-10-16T02:45:50;7.05;;;5.28;;
75689;SDS011;64303;53.118;9.044;2022-10-16T02:48:17;4.82;;;4.32;;
75689;SDS011;64303;53.118;9.044;2022-10-16T02:50:45;7.60;;;6.45;;
75689;SDS011;64303;53.118;9.044;2022-10-16T02:53:11;7.25;;;3.72;;
75689;SDS011;64303;53.118;9.044;2022-10-16T02:55:38;5.25;;;4.75;;
75689;SDS011;64303;53.118;9.044;2022-10-16T02:58:05;9.27;;;3.63;;
75689;SDS011;64303;53.118;9.044;2022-10-16T03:00:32;7.25;;;3.75;;
75689;SDS011;64303;53.118;9.044;2022-10-16T03:02:58;6.95;;;5.18;;
75689;SDS011;64303;53.118;9.044;2022-10-16T03:05:25;6.65;;;6.13;;
75689;SDS011;64303;53.118;9.044;2022-10-16T03:07:52;9.77;;;6.05;;
75689;SDS011;64303;53.118;9.044;2022-10-16T03:10:19;5.53;;;4.15;;
75689;SDS011;64303;53.118;9.044;2022-10-16T03:12:46;7.90;;;4.85;;
75689;SDS011;64303;53.118;9.044;2022-10-16T03:15:12;7.28;;;5.28;;
75689;SDS011;64303;53.118;9.044;2022-10-16T03:17:38;6.50;;;4.72;;
75689;SDS011;64303;53.118;9.044;2022-10-16T03:20:05;7.50;;;5.18;;
75689;SDS011;64303;53.118;9.044;2022-10-16T03:22:32;6.75;;;5.70;;
75689;SDS011;64303;53.118;9.044;2022-10-16T03:25:00;6.88;;;4.75;;
75689;SDS011;64303;53.118;9.044;2022-10-16T03:27:27;6.95;;;5.15;;
75689;SDS011;64303;53.118;9.044;2022-10-16T03:29:53;6.18;;;4.88;;
75689;SDS011;64303;53.118;9.044;2022-10-16T03:32:19;7.47;;;4.78;;
75689;SDS011;64303;53.118;9.044;2022-10-16T03:34:46;6.30;;;4.97;;
75689;SDS011;64303;53.118;9.044;2022-10-16T03:37:13;6.97;;;5.47;;
75689;SDS011;64303;53.118;9.044;2022-10-16T03:39:39;6.03;;;5.43;;
75689;SDS011;64303;53.118;9.044;2022-10-16T03:42:07;7.43;;;5.97;;
75689;SDS011;64303;53.118;9.044;2022-10-16T03:44:33;7.50;;;5.80;;
75689;SDS011;64303;53.118;9.044;2022-10-16T03:47:00;6.63;;;5.63;;
75689;SDS011;64303;53.118;9.044;2022-10-16T03:49:26;9.45;;;5.93;;
75689;SDS011;64303;53.118;9.044;2022-10-16T03:51:53;8.93;;;7.43;;
75689;SDS011;64303;53.118;9.044;2022-10-16T03:54:19;9.50;;;6.30;;
75689;SDS011;64303;53.118;9.044;2022-10-16T03:56:47;11.23;;;7.75;;
75689;SDS011;64303;53.118;9.044;2022-10-16T03:59:15;12.55;;;7.00;;
75689;SDS011;64303;53.118;9.044;2022-10-16T04:01:41;14.18;;;8.73;;
75689;SDS011;64303;53.118;9.044;2022-10-16T04:04:07;10.38;;;7.57;;
75689;SDS011;64303;53.118;9.044;2022-10-16T04:06:34;12.43;;;8.30;;
75689;SDS011;64303;53.118;9.044;2022-10-16T04:09:00;9.45;;;7.18;;
75689;SDS011;64303;53.118;9.044;2022-10-16T04:11:27;10.73;;;8.93;;
75689;SDS011;64303;53.118;9.044;2022-10-16T04:13:53;15.63;;;9.20;;
75689;SDS011;64303;53.118;9.044;2022-10-16T04:16:21;11.65;;;9.52;;
75689;SDS011;64303;53.118;9.044;2022-10-16T04:18:47;11.43;;;7.70;;
75689;SDS011;64303;53.118;9.044;2022-10-16T04:21:14;13.75;;;8.98;;
75689;SDS011;64303;53.118;9.044;2022-10-16T04:23:41;12.60;;;8.75;;
75689;SDS011;64303;53.118;9.044;2022-10-16T04:26:07;12.07;;;9.98;;
75689;SDS011;64303;53.118;9.044;2022-10-16T04:28:35;10.95;;;8.10;;
75689;SDS011;64303;53.118;9.044;2022-10-16T04:31:03;12.80;;;10.25;;
75689;SDS011;64303;53.118;9.044;2022-10-16T04:33:31;13.45;;;9.60;;
75689;SDS011;64303;53.118;9.044;2022-10-16T04:35:58;14.73;;;10.18;;
75689;SDS011;64303;53.118;9.044;2022-10-16T04:38:25;13.60;;;8.07;;
75689;SDS011;64303;53.118;9.044;2022-10-16T04:40:51;13.07;;;9.30;;
75689;SDS011;64303;53.118;9.044;2022-10-16T04:43:18;12.23;;;8.82;;
75689;SDS011;64303;53.118;9.044;2022-10-16T04:45:45;10.95;;;9.18;;
75689;SDS011;64303;53.118;9.044;2022-10-16T04:48:11;15.63;;;9.75;;
75689;SDS011;64303;53.118;9.044;2022-10-16T04:50:39;12.48;;;10.60;;
75689;SDS011;64303;53.118;9.044;2022-10-16T04:53:06;18.85;;;10.43;;
75689;SDS011;64303;53.118;9.044;2022-10-16T04:55:32;13.93;;;11.10;;
75689;SDS011;64303;53.118;9.044;2022-10-16T04:57:59;14.48;;;10.25;;
75689;SDS011;64303;53.118;9.044;2022-10-16T05:00:25;17.70;;;11.20;;
75689;SDS011;64303;53.118;9.044;2022-10-16T05:02:52;15.25;;;9.88;;
75689;SDS011;64303;53.118;9.044;2022-10-16T05:05:18;17.25;;;11.38;;
75689;SDS011;64303;53.118;9.044;2022-10-16T05:07:46;14.40;;;10.65;;
75689;SDS011;64303;53.118;9.044;2022-10-16T05:10:13;15.30;;;9.30;;
75689;SDS011;64303;53.118;9.044;2022-10-16T05:12:39;15.13;;;12.65;;
75689;SDS011;64303;53.118;9.044;2022-10-16T05:15:06;14.75;;;9.82;;
75689;SDS011;64303;53.118;9.044;2022-10-16T05:17:33;18.05;;;12.23;;
75689;SDS011;64303;53.118;9.044;2022-10-16T05:20:00;15.85;;;11.27;;
75689;SDS011;64303;53.118;9.044;2022-10-16T05:22:26;18.10;;;11.75;;
75689;SDS011;64303;53.118;9.044;2022-10-16T05:24:54;16.77;;;10.13;;
75689;SDS011;64303;53.118;9.044;2022-10-16T05:27:21;16.00;;;10.90;;
75689;SDS011;64303;53.118;9.044;2022-10-16T05:29:48;17.65;;;12.23;;
75689;SDS011;64303;53.118;9.044;2022-10-16T05:32:15;15.45;;;10.00;;
75689;SDS011;64303;53.118;9.044;2022-10-16T05:34:43;20.20;;;12.57;;
75689;SDS011;64303;53.118;9.044;2022-10-16T05:37:10;16.13;;;11.40;;
75689;SDS011;64303;53.118;9.044;2022-10-16T05:39:37;14.00;;;10.20;;
75689;SDS011;64303;53.118;9.044;2022-10-16T05:42:05;16.08;;;11.00;;
75689;SDS011;64303;53.118;9.044;2022-10-16T05:46:57;14.35;;;10.73;;
75689;SDS011;64303;53.118;9.044;2022-10-16T05:49:24;21.67;;;11.38;;
75689;SDS011;64303;53.118;9.044;2022-10-16T05:51:50;19.88;;;11.35;;
75689;SDS011;64303;53.118;9.044;2022-10-16T05:54:17;16.17;;;11.48;;
75689;SDS011;64303;53.118;9.044;2022-10-16T05:56:43;14.15;;;11.35;;
75689;SDS011;64303;53.118;9.044;2022-10-16T05:59:11;19.25;;;13.75;;
75689;SDS011;64303;53.118;9.044;2022-10-16T06:01:37;15.15;;;11.50;;
75689;SDS011;64303;53.118;9.044;2022-10-16T06:04:04;16.77;;;8.90;;
75689;SDS011;64303;53.118;9.044;2022-10-16T06:06:30;19.20;;;10.77;;
75689;SDS011;64303;53.118;9.044;2022-10-16T06:08:57;16.27;;;10.68;;
75689;SDS011;64303;53.118;9.044;2022-10-16T06:11:26;14.57;;;11.10;;
75689;SDS011;64303;53.118;9.044;2022-10-16T06:13:54;15.05;;;9.82;;
75689;SDS011;64303;53.118;9.044;2022-10-16T06:16:23;14.93;;;9.80;;
75689;SDS011;64303;53.118;9.044;2022-10-16T06:18:50;12.18;;;9.95;;
75689;SDS011;64303;53.118;9.044;2022-10-16T06:21:18;14.60;;;10.40;;
75689;SDS011;64303;53.118;9.044;2022-10-16T06:23:46;15.32;;;10.35;;
75689;SDS011;64303;53.118;9.044;2022-10-16T06:26:13;9.98;;;8.02;;
75689;SDS011;64303;53.118;9.044;2022-10-16T06:28:40;14.70;;;9.32;;
75689;SDS011;64303;53.118;9.044;2022-10-16T06:31:08;13.02;;;9.60;;
75689;SDS011;64303;53.118;9.044;2022-10-16T06:36:04;11.70;;;7.93;;
75689;SDS011;64303;53.118;9.044;2022-10-16T06:38:32;13.10;;;10.10;;
75689;SDS011;64303;53.118;9.044;2022-10-16T06:40:58;15.15;;;9.15;;
75689;SDS011;64303;53.118;9.044;2022-10-16T06:43:25;14.10;;;8.80;;
75689;SDS011;64303;53.118;9.044;2022-10-16T06:45:51;13.80;;;8.32;;
75689;SDS011;64303;53.118;9.044;2022-10-16T06:48:19;13.02;;;8.02;;
75689;SDS011;64303;53.118;9.044;2022-10-16T06:50:55;10.75;;;7.18;;
75689;SDS011;64303;53.118;9.044;2022-10-16T06:53:23;11.05;;;8.18;;
75689;SDS011;64303;53.118;9.044;2022-10-16T06:55:49;11.85;;;8.38;;
75689;SDS011;64303;53.118;9.044;2022-10-16T06:58:16;11.63;;;9.60;;
75689;SDS011;64303;53.118;9.044;2022-10-16T07:00:42;11.13;;;9.02;;
75689;SDS011;64303;53.118;9.044;2022-10-16T07:03:09;12.60;;;7.85;;
75689;SDS011;64303;53.118;9.044;2022-10-16T07:05:37;11.27;;;7.32;;
75689;SDS011;64303;53.118;9.044;2022-10-16T07:08:05;14.95;;;7.43;;
75689;SDS011;64303;53.118;9.044;2022-10-16T07:10:31;9.98;;;6.35;;
75689;SDS011;64303;53.118;9.044;2022-10-16T07:12:58;12.27;;;7.72;;
75689;SDS011;64303;53.118;9.044;2022-10-16T07:15:24;10.23;;;5.97;;
75689;SDS011;64303;53.118;9.044;2022-10-16T07:17:51;13.05;;;8.73;;
75689;SDS011;64303;53.118;9.044;2022-10-16T07:20:17;9.20;;;6.70;;
75689;SDS011;64303;53.118;9.044;2022-10-16T07:22:44;10.95;;;8.75;;
75689;SDS011;64303;53.118;9.044;2022-10-16T07:25:12;10.02;;;7.97;;
75689;SDS011;64303;53.118;9.044;2022-10-16T07:27:39;9.63;;;8.57;;
75689;SDS011;64303;53.118;9.044;2022-10-16T07:30:05;9.80;;;6.47;;
75689;SDS011;64303;53.118;9.044;2022-10-16T07:32:34;10.20;;;7.65;;
75689;SDS011;64303;53.118;9.044;2022-10-16T07:35:00;9.18;;;6.35;;
75689;SDS011;64303;53.118;9.044;2022-10-16T07:37:27;9.15;;;6.78;;
75689;SDS011;64303;53.118;9.044;2022-10-16T07:39:53;10.50;;;8.20;;
75689;SDS011;64303;53.118;9.044;2022-10-16T07:42:25;8.57;;;5.65;;
75689;SDS011;64303;53.118;9.044;2022-10-16T07:44:51;11.82;;;5.97;;
75689;SDS011;64303;53.118;9.044;2022-10-16T07:47:18;6.38;;;5.63;;
75689;SDS011;64303;53.118;9.044;2022-10-16T07:49:45;7.10;;;4.20;;
75689;SDS011;64303;53.118;9.044;2022-10-16T07:52:12;6.93;;;4.90;;
75689;SDS011;64303;53.118;9.044;2022-10-16T07:54:38;6.22;;;4.88;;
75689;SDS011;64303;53.118;9.044;2022-10-16T07:57:07;6.20;;;5.38;;
75689;SDS011;64303;53.118;9.044;2022-10-16T07:59:35;6.43;;;4.32;;
75689;SDS011;64303;53.118;9.044;2022-10-16T08:02:04;7.10;;;4.88;;
75689;SDS011;64303;53.118;9.044;2022-10-16T08:04:30;6.90;;;6.20;;
75689;SDS011;64303;53.118;9.044;2022-10-16T08:06:57;6.28;;;5.68;;
75689;SDS011;64303;53.118;9.044;2022-10-16T08:09:23;5.80;;;4.70;;
75689;SDS011;64303;53.118;9.044;2022-10-16T08:11:50;8.30;;;6.03;;
75689;SDS011;64303;53.118;9.044;2022-10-16T08:14:17;6.18;;;3.45;;
75689;SDS011;64303;53.118;9.044;2022-10-16T08:16:45;6.32;;;5.22;;
75689;SDS011;64303;53.118;9.044;2022-10-16T08:21:38;4.70;;;4.15;;
75689;SDS011;64303;53.118;9.044;2022-10-16T08:24:04;6.70;;;6.05;;
75689;SDS011;64303;53.118;9.044;2022-10-16T08:26:31;5.90;;;3.33;;
75689;SDS011;64303;53.118;9.044;2022-10-16T08:28:57;6.55;;;4.70;;
75689;SDS011;64303;53.118;9.044;2022-10-16T08:31:24;5.55;;;4.82;;
75689;SDS011;64303;53.118;9.044;2022-10-16T08:33:52;5.38;;;3.08;;
75689;SDS011;64303;53.118;9.044;2022-10-16T08:38:46;5.15;;;3.78;;
75689;SDS011;64303;53.118;9.044;2022-10-16T08:41:17;5.65;;;4.55;;
75689;SDS011;64303;53.118;9.044;2022-10-16T08:46:46;5.40;;;3.33;;
75689;SDS011;64303;53.118;9.044;2022-10-16T08:49:18;3.75;;;2.13;;
75689;SDS011;64303;53.118;9.044;2022-10-16T08:51:44;3.85;;;2.28;;
75689;SDS011;64303;53.118;9.044;2022-10-16T08:54:18;5.22;;;2.40;;
75689;SDS011;64303;53.118;9.044;2022-10-16T08:56:49;8.23;;;4.03;;
75689;SDS011;64303;53.118;9.044;2022-10-16T08:59:15;4.28;;;2.63;;
75689;SDS011;64303;53.118;9.044;2022-10-16T09:01:44;3.67;;;3.05;;
75689;SDS011;64303;53.118;9.044;2022-10-16T09:04:41;5.40;;;2.38;;
75689;SDS011;64303;53.118;9.044;2022-10-16T09:07:14;4.43;;;3.58;;
75689;SDS011;64303;53.118;9.044;2022-10-16T09:09:47;4.72;;;2.45;;
75689;SDS011;64303;53.118;9.044;2022-10-16T09:12:21;4.05;;;2.70;;
75689;SDS011;64303;53.118;9.044;2022-10-16T09:14:52;3.75;;;1.95;;
75689;SDS011;64303;53.118;9.044;2022-10-16T09:17:27;4.03;;;2.63;;
75689;SDS011;64303;53.118;9.044;2022-10-16T09:20:03;3.22;;;2.13;;
75689;SDS011;64303;53.118;9.044;2022-10-16T09:22:40;4.50;;;2.47;;
75689;SDS011;64303;53.118;9.044;2022-10-16T09:25:10;4.25;;;1.55;;
75689;SDS011;64303;53.118;9.044;2022-10-16T09:27:38;3.95;;;2.45;;
75689;SDS011;64303;53.118;9.044;2022-10-16T09:30:10;3.55;;;1.90;;
75689;SDS011;64303;53.118;9.044;2022-10-16T09:32:38;3.72;;;1.58;;
75689;SDS011;64303;53.118;9.044;2022-10-16T09:35:09;2.72;;;1.67;;
75689;SDS011;64303;53.118;9.044;2022-10-16T09:37:37;5.38;;;1.70;;
75689;SDS011;64303;53.118;9.044;2022-10-16T09:40:04;4.10;;;1.00;;
75689;SDS011;64303;53.118;9.044;2022-10-16T09:42:32;5.43;;;1.27;;
75689;SDS011;64303;53.118;9.044;2022-10-16T09:45:00;4.57;;;1.52;;
75689;SDS011;64303;53.118;9.044;2022-10-16T09:47:28;2.83;;;1.33;;
75689;SDS011;64303;53.118;9.044;2022-10-16T09:49:56;4.07;;;2.33;;
75689;SDS011;64303;53.118;9.044;2022-10-16T09:52:26;7.45;;;1.90;;
75689;SDS011;64303;53.118;9.044;2022-10-16T09:54:53;3.55;;;2.10;;
75689;SDS011;64303;53.118;9.044;2022-10-16T09:57:21;4.55;;;1.80;;
75689;SDS011;64303;53.118;9.044;2022-10-16T09:59:48;3.92;;;2.63;;
75689;SDS011;64303;53.118;9.044;2022-10-16T10:02:16;4.28;;;1.23;;
75689;SDS011;64303;53.118;9.044;2022-10-16T10:04:47;3.05;;;1.77;;
75689;SDS011;64303;53.118;9.044;2022-10-16T10:07:19;2.67;;;1.10;;
75689;SDS011;64303;53.118;9.044;2022-10-16T10:09:50;3.70;;;1.08;;
75689;SDS011;64303;53.118;9.044;2022-10-16T10:12:17;4.65;;;1.85;;
75689;SDS011;64303;53.118;9.044;2022-10-16T10:14:46;4.70;;;1.77;;
75689;SDS011;64303;53.118;9.044;2022-10-16T10:17:15;3.47;;;2.10;;
75689;SDS011;64303;53.118;9.044;2022-10-16T10:19:46;2.65;;;2.42;;
75689;SDS011;64303;53.118;9.044;2022-10-16T10:22:18;3.47;;;2.33;;
75689;SDS011;64303;53.118;9.044;2022-10-16T10:24:56;5.47;;;2.55;;
75689;SDS011;64303;53.118;9.044;2022-10-16T10:27:26;2.30;;;1.63;;
75689;SDS011;64303;53.118;9.044;2022-10-16T10:30:00;5.38;;;3.05;;
75689;SDS011;64303;53.118;9.044;2022-10-16T10:32:31;3.80;;;1.85;;
75689;SDS011;64303;53.118;9.044;2022-10-16T10:35:07;5.25;;;1.35;;
75689;SDS011;64303;53.118;9.044;2022-10-16T10:37:44;4.55;;;2.10;;
75689;SDS011;64303;53.118;9.044;2022-10-16T10:40:27;4.10;;;2.95;;
75689;SDS011;64303;53.118;9.044;2022-10-16T10:42:59;3.08;;;1.50;;
75689;SDS011;64303;53.118;9.044;2022-10-16T10:45:33;2.70;;;1.98;;
75689;SDS011;64303;53.118;9.044;2022-10-16T10:48:09;3.30;;;1.90;;
75689;SDS011;64303;53.118;9.044;2022-10-16T10:50:45;2.70;;;1.80;;
75689;SDS011;64303;53.118;9.044;2022-10-16T10:53:18;4.22;;;1.52;;
75689;SDS011;64303;53.118;9.044;2022-10-16T10:55:54;3.25;;;1.73;;
75689;SDS011;64303;53.118;9.044;2022-10-16T10:58:44;3.67;;;1.70;;
75689;SDS011;64303;53.118;9.044;2022-10-16T11:01:22;4.95;;;2.17;;
75689;SDS011;64303;53.118;9.044;2022-10-16T11:03:57;7.68;;;2.42;;
75689;SDS011;64303;53.118;9.044;2022-10-16T11:06:32;2.78;;;2.55;;
75689;SDS011;64303;53.118;9.044;2022-10-16T11:09:00;5.13;;;2.25;;
75689;SDS011;64303;53.118;9.044;2022-10-16T11:11:31;3.75;;;1.38;;
75689;SDS011;64303;53.118;9.044;2022-10-16T11:14:00;5.38;;;2.10;;
75689;SDS011;64303;53.118;9.044;2022-10-16T11:16:30;6.22;;;3.22;;
75689;SDS011;64303;53.118;9.044;2022-10-16T11:19:02;3.50;;;1.60;;
75689;SDS011;64303;53.118;9.044;2022-10-16T11:21:34;3.47;;;1.40;;
75689;SDS011;64303;53.118;9.044;2022-10-16T11:24:06;2.95;;;1.75;;
75689;SDS011;64303;53.118;9.044;2022-10-16T11:26:42;6.38;;;2.90;;
75689;SDS011;64303;53.118;9.044;2022-10-16T11:29:12;3.60;;;2.47;;
75689;SDS011;64303;53.118;9.044;2022-10-16T11:31:41;5.20;;;2.10;;
75689;SDS011;64303;53.118;9.044;2022-10-16T11:34:12;5.18;;;2.70;;
75689;SDS011;64303;53.118;9.044;2022-10-16T11:36:44;5.28;;;3.05;;
75689;SDS011;64303;53.118;9.044;2022-10-16T11:39:18;4.43;;;2.15;;
75689;SDS011;64303;53.118;9.044;2022-10-16T11:41:49;3.75;;;2.47;;
75689;SDS011;64303;53.118;9.044;2022-10-16T11:47:09;4.07;;;2.47;;
75689;SDS011;64303;53.118;9.044;2022-10-16T11:49:49;3.65;;;2.25;;
75689;SDS011;64303;53.118;9.044;2022-10-16T11:52:19;3.55;;;2.25;;
75689;SDS011;64303;53.118;9.044;2022-10-16T11:54:50;2.35;;;1.55;;
75689;SDS011;64303;53.118;9.044;2022-10-16T11:57:20;4.15;;;2.92;;
75689;SDS011;64303;53.118;9.044;2022-10-16T11:59:48;3.70;;;2.10;;
75689;SDS011;64303;53.118;9.044;2022-10-16T12:02:26;3.70;;;1.98;;
75689;SDS011;64303;53.118;9.044;2022-10-16T12:05:01;4.32;;;2.38;;
75689;SDS011;64303;53.118;9.044;2022-10-16T12:07:34;5.85;;;2.47;;
75689;SDS011;64303;53.118;9.044;2022-10-16T12:10:09;2.78;;;1.73;;
75689;SDS011;64303;53.118;9.044;2022-10-16T12:15:17;4.35;;;2.10;;
75689;SDS011;64303;53.118;9.044;2022-10-16T12:17:45;3.30;;;1.92;;
75689;SDS011;64303;53.118;9.044;2022-10-16T12:20:18;2.35;;;1.70;;
75689;SDS011;64303;53.118;9.044;2022-10-16T12:22:49;4.00;;;1.80;;
75689;SDS011;64303;53.118;9.044;2022-10-16T12:25:20;4.72;;;1.70;;
75689;SDS011;64303;53.118;9.044;2022-10-16T12:27:54;3.67;;;1.83;;
75689;SDS011;64303;53.118;9.044;2022-10-16T12:30:23;5.28;;;2.30;;
75689;SDS011;64303;53.118;9.044;2022-10-16T12:32:53;5.35;;;2.67;;
75689;SDS011;64303;53.118;9.044;2022-10-16T12:35:21;3.33;;;2.42;;
75689;SDS011;64303;53.118;9.044;2022-10-16T12:37:49;5.80;;;2.13;;
75689;SDS011;64303;53.118;9.044;2022-10-16T12:40:23;5.90;;;1.95;;
75689;SDS011;64303;53.118;9.044;2022-10-16T12:42:52;3.63;;;2.65;;
75689;SDS011;64303;53.118;9.044;2022-10-16T12:45:27;4.10;;;1.90;;
75689;SDS011;64303;53.118;9.044;2022-10-16T12:47:56;5.85;;;2.42;;
75689;SDS011;64303;53.118;9.044;2022-10-16T12:50:24;4.03;;;2.20;;
75689;SDS011;64303;53.118;9.044;2022-10-16T12:52:53;4.00;;;2.80;;
75689;SDS011;64303;53.118;9.044;2022-10-16T12:55:20;4.75;;;2.42;;
75689;SDS011;64303;53.118;9.044;2022-10-16T12:57:53;8.05;;;2.08;;
75689;SDS011;64303;53.118;9.044;2022-10-16T13:00:32;5.68;;;2.33;;
75689;SDS011;64303;53.118;9.044;2022-10-16T13:03:13;5.00;;;3.38;;
75689;SDS011;64303;53.118;9.044;2022-10-16T13:05:53;4.03;;;2.38;;
75689;SDS011;64303;53.118;9.044;2022-10-16T13:08:35;4.78;;;2.88;;
75689;SDS011;64303;53.118;9.044;2022-10-16T13:11:20;3.13;;;1.95;;
75689;SDS011;64303;53.118;9.044;2022-10-16T13:13:55;4.60;;;2.60;;
75689;SDS011;64303;53.118;9.044;2022-10-16T13:16:33;4.88;;;2.75;;
75689;SDS011;64303;53.118;9.044;2022-10-16T13:19:08;3.08;;;2.08;;
75689;SDS011;64303;53.118;9.044;2022-10-16T13:21:42;6.55;;;1.45;;
75689;SDS011;64303;53.118;9.044;2022-10-16T13:24:17;5.65;;;2.80;;
75689;SDS011;64303;53.118;9.044;2022-10-16T13:26:52;3.40;;;1.90;;
75689;SDS011;64303;53.118;9.044;2022-10-16T13:29:22;3.97;;;1.95;;
75689;SDS011;64303;53.118;9.044;2022-10-16T13:31:50;3.22;;;1.70;;
75689;SDS011;64303;53.118;9.044;2022-10-16T13:34:17;4.93;;;2.38;;
75689;SDS011;64303;53.118;9.044;2022-10-16T13:36:45;6.20;;;1.40;;
75689;SDS011;64303;53.118;9.044;2022-10-16T13:39:19;6.85;;;1.67;;
75689;SDS011;64303;53.118;9.044;2022-10-16T13:41:57;2.65;;;1.58;;
75689;SDS011;64303;53.118;9.044;2022-10-16T13:44:26;4.50;;;2.65;;
75689;SDS011;64303;53.118;9.044;2022-10-16T13:46:59;6.65;;;2.22;;
75689;SDS011;64303;53.118;9.044;2022-10-16T13:49:25;3.08;;;1.77;;
75689;SDS011;64303;53.118;9.044;2022-10-16T13:51:55;3.40;;;1.73;;
75689;SDS011;64303;53.118;9.044;2022-10-16T13:54:22;3.80;;;3.50;;
75689;SDS011;64303;53.118;9.044;2022-10-16T13:56:50;4.32;;;2.10;;
75689;SDS011;64303;53.118;9.044;2022-10-16T13:59:23;3.83;;;2.95;;
75689;SDS011;64303;53.118;9.044;2022-10-16T14:01:51;5.70;;;3.28;;
75689;SDS011;64303;53.118;9.044;2022-10-16T14:04:21;4.60;;;1.98;;
75689;SDS011;64303;53.118;9.044;2022-10-16T14:06:49;3.97;;;2.22;;
75689;SDS011;64303;53.118;9.044;2022-10-16T14:09:18;3.45;;;1.80;;
75689;SDS011;64303;53.118;9.044;2022-10-16T14:11:49;6.95;;;3.25;;
75689;SDS011;64303;53.118;9.044;2022-10-16T14:14:17;3.75;;;2.45;;
75689;SDS011;64303;53.118;9.044;2022-10-16T14:16:45;5.20;;;2.67;;
75689;SDS011;64303;53.118;9.044;2022-10-16T14:19:13;4.13;;;1.83;;
75689;SDS011;64303;53.118;9.044;2022-10-16T14:21:45;5.90;;;2.85;;
75689;SDS011;64303;53.118;9.044;2022-10-16T14:24:12;4.70;;;2.67;;
75689;SDS011;64303;53.118;9.044;2022-10-16T14:26:40;6.82;;;3.83;;
75689;SDS011;64303;53.118;9.044;2022-10-16T14:29:10;3.33;;;2.25;;
75689;SDS011;64303;53.118;9.044;2022-10-16T14:31:38;3.88;;;2.70;;
75689;SDS011;64303;53.118;9.044;2022-10-16T14:36:57;5.10;;;2.22;;
75689;SDS011;64303;53.118;9.044;2022-10-16T14:39:25;4.30;;;2.83;;
75689;SDS011;64303;53.118;9.044;2022-10-16T14:41:54;4.30;;;2.25;;
75689;SDS011;64303;53.118;9.044;2022-10-16T14:44:23;7.30;;;2.97;;
75689;SDS011;64303;53.118;9.044;2022-10-16T14:46:54;5.47;;;3.05;;
75689;SDS011;64303;53.118;9.044;2022-10-16T14:49:21;3.50;;;2.92;;
75689;SDS011;64303;53.118;9.044;2022-10-16T14:51:48;3.63;;;1.70;;
75689;SDS011;64303;53.118;9.044;2022-10-16T14:54:17;4.70;;;4.28;;
75689;SDS011;64303;53.118;9.044;2022-10-16T14:56:48;4.57;;;3.45;;
75689;SDS011;64303;53.118;9.044;2022-10-16T14:59:16;5.85;;;2.67;;
75689;SDS011;64303;53.118;9.044;2022-10-16T15:01:46;3.50;;;2.08;;
75689;SDS011;64303;53.118;9.044;2022-10-16T15:04:12;6.40;;;2.60;;
75689;SDS011;64303;53.118;9.044;2022-10-16T15:06:40;5.70;;;2.63;;
75689;SDS011;64303;53.118;9.044;2022-10-16T15:09:07;4.30;;;2.78;;
75689;SDS011;64303;53.118;9.044;2022-10-16T15:11:34;3.67;;;1.88;;
75689;SDS011;64303;53.118;9.044;2022-10-16T15:14:01;5.13;;;2.28;;
75689;SDS011;64303;53.118;9.044;2022-10-16T15:16:28;6.57;;;2.75;;
75689;SDS011;64303;53.118;9.044;2022-10-16T15:18:55;6.32;;;3.13;;
75689;SDS011;64303;53.118;9.044;2022-10-16T15:21:24;7.75;;;2.45;;
75689;SDS011;64303;53.118;9.044;2022-10-16T15:23:51;4.80;;;1.98;;
75689;SDS011;64303;53.118;9.044;2022-10-16T15:26:18;5.63;;;2.25;;
75689;SDS011;64303;53.118;9.044;2022-10-16T15:28:46;3.40;;;2.35;;